sensor_id;sensor_type;location;lat;lon;timestamp;P1;durP1;ratioP1;P2;durP2;ratioP2
35644;SDS011;21764;52.042;6.830;2022-09-09T00:04:33;7.18;;;2.40;;
35644;SDS011;21764;52.042;6.830;2022-09-09T00:09:45;8.23;;;2.42;;
35644;SDS011;21764;52.042;6.830;2022-09-09T00:14:59;5.88;;;1.92;;
35644;SDS011;21764;52.042;6.830;2022-09-09T00:25:19;2.95;;;1.80;;
35644;SDS011;21764;52.042;6.830;2022-09-09T00:30:31;4.55;;;1.80;;
35644;SDS011;21764;52.042;6.830;2022-09-09T00:35:35;4.00;;;1.85;;
35644;SDS011;21764;52.042;6.830;2022-09-09T00:41:22;5.35;;;1.52;;
35644;SDS011;21764;52.042;6.830;2022-09-09T00:46:13;4.43;;;1.50;;
35644;SDS011;21764;52.042;6.830;2022-09-09T00:51:29;2.23;;;1.60;;
35644;SDS011;21764;52.042;6.830;2022-09-09T00:56:49;3.55;;;1.63;;
35644;SDS011;21764;52.042;6.830;2022-09-09T01:02:28;4.15;;;2.00;;
35644;SDS011;21764;52.042;6.830;2022-09-09T01:07:28;5.28;;;2.03;;
35644;SDS011;21764;52.042;6.830;2022-09-09T01:12:47;5.22;;;2.17;;
35644;SDS011;21764;52.042;6.830;2022-09-09T01:23:10;3.42;;;2.33;;
35644;SDS011;21764;52.042;6.830;2022-09-09T01:28:26;4.55;;;2.58;;
35644;SDS011;21764;52.042;6.830;2022-09-09T01:33:28;4.82;;;2.50;;
35644;SDS011;21764;52.042;6.830;2022-09-09T01:38:28;6.72;;;2.97;;
35644;SDS011;21764;52.042;6.830;2022-09-09T01:43:31;7.68;;;2.85;;
35644;SDS011;21764;52.042;6.830;2022-09-09T01:48:32;3.75;;;2.00;;
35644;SDS011;21764;52.042;6.830;2022-09-09T01:53:33;4.93;;;2.60;;
35644;SDS011;21764;52.042;6.830;2022-09-09T02:03:51;4.50;;;2.63;;
35644;SDS011;21764;52.042;6.830;2022-09-09T02:08:57;5.47;;;2.80;;
35644;SDS011;21764;52.042;6.830;2022-09-09T02:14:05;4.93;;;3.60;;
35644;SDS011;21764;52.042;6.830;2022-09-09T02:24:24;5.30;;;4.05;;
35644;SDS011;21764;52.042;6.830;2022-09-09T02:29:31;5.72;;;3.38;;
35644;SDS011;21764;52.042;6.830;2022-09-09T02:34:36;9.25;;;4.28;;
35644;SDS011;21764;52.042;6.830;2022-09-09T02:44:41;7.43;;;4.22;;
35644;SDS011;21764;52.042;6.830;2022-09-09T02:49:52;4.95;;;3.67;;
35644;SDS011;21764;52.042;6.830;2022-09-09T02:55:06;7.57;;;3.60;;
35644;SDS011;21764;52.042;6.830;2022-09-09T03:00:29;5.82;;;3.13;;
35644;SDS011;21764;52.042;6.830;2022-09-09T03:05:30;6.10;;;3.67;;
35644;SDS011;21764;52.042;6.830;2022-09-09T03:10:32;6.30;;;4.13;;
35644;SDS011;21764;52.042;6.830;2022-09-09T03:15:33;17.50;;;5.72;;
35644;SDS011;21764;52.042;6.830;2022-09-09T03:20:33;18.25;;;6.13;;
35644;SDS011;21764;52.042;6.830;2022-09-09T03:25:34;12.40;;;5.63;;
35644;SDS011;21764;52.042;6.830;2022-09-09T03:30:35;8.65;;;6.05;;
35644;SDS011;21764;52.042;6.830;2022-09-09T03:35:36;14.93;;;6.47;;
35644;SDS011;21764;52.042;6.830;2022-09-09T03:40:36;13.25;;;6.90;;
35644;SDS011;21764;52.042;6.830;2022-09-09T03:45:37;11.20;;;7.57;;
35644;SDS011;21764;52.042;6.830;2022-09-09T03:50:38;12.95;;;7.90;;
35644;SDS011;21764;52.042;6.830;2022-09-09T03:55:38;14.35;;;8.13;;
35644;SDS011;21764;52.042;6.830;2022-09-09T04:00:41;13.45;;;9.13;;
35644;SDS011;21764;52.042;6.830;2022-09-09T04:05:42;19.83;;;9.77;;
35644;SDS011;21764;52.042;6.830;2022-09-09T04:10:44;16.17;;;9.43;;
35644;SDS011;21764;52.042;6.830;2022-09-09T04:15:50;21.00;;;10.80;;
35644;SDS011;21764;52.042;6.830;2022-09-09T04:20:55;20.70;;;10.43;;
35644;SDS011;21764;52.042;6.830;2022-09-09T04:25:59;17.27;;;9.48;;
35644;SDS011;21764;52.042;6.830;2022-09-09T04:31:04;21.52;;;10.60;;
35644;SDS011;21764;52.042;6.830;2022-09-09T04:36:07;21.50;;;10.45;;
35644;SDS011;21764;52.042;6.830;2022-09-09T04:41:09;16.83;;;9.02;;
35644;SDS011;21764;52.042;6.830;2022-09-09T04:46:11;15.10;;;8.40;;
35644;SDS011;21764;52.042;6.830;2022-09-09T04:51:12;12.90;;;8.45;;
35644;SDS011;21764;52.042;6.830;2022-09-09T04:56:15;16.40;;;8.52;;
35644;SDS011;21764;52.042;6.830;2022-09-09T05:01:17;15.52;;;7.90;;
35644;SDS011;21764;52.042;6.830;2022-09-09T05:06:22;12.52;;;7.68;;
35644;SDS011;21764;52.042;6.830;2022-09-09T05:11:23;15.82;;;8.10;;
35644;SDS011;21764;52.042;6.830;2022-09-09T05:16:25;16.88;;;6.63;;
35644;SDS011;21764;52.042;6.830;2022-09-09T05:21:26;13.40;;;7.50;;
35644;SDS011;21764;52.042;6.830;2022-09-09T05:26:28;12.73;;;6.78;;
35644;SDS011;21764;52.042;6.830;2022-09-09T05:31:30;14.40;;;5.65;;
35644;SDS011;21764;52.042;6.830;2022-09-09T05:36:31;13.95;;;6.30;;
35644;SDS011;21764;52.042;6.830;2022-09-09T05:41:31;13.32;;;5.40;;
35644;SDS011;21764;52.042;6.830;2022-09-09T05:46:32;8.70;;;4.85;;
35644;SDS011;21764;52.042;6.830;2022-09-09T05:51:33;18.00;;;5.45;;
35644;SDS011;21764;52.042;6.830;2022-09-09T05:56:34;14.27;;;4.90;;
35644;SDS011;21764;52.042;6.830;2022-09-09T06:01:36;13.20;;;5.57;;
35644;SDS011;21764;52.042;6.830;2022-09-09T06:06:40;11.82;;;4.28;;
35644;SDS011;21764;52.042;6.830;2022-09-09T06:11:42;8.80;;;3.72;;
35644;SDS011;21764;52.042;6.830;2022-09-09T06:16:43;10.75;;;3.90;;
35644;SDS011;21764;52.042;6.830;2022-09-09T06:21:44;8.18;;;3.38;;
35644;SDS011;21764;52.042;6.830;2022-09-09T06:26:44;12.38;;;3.33;;
35644;SDS011;21764;52.042;6.830;2022-09-09T06:31:45;12.60;;;3.53;;
35644;SDS011;21764;52.042;6.830;2022-09-09T06:36:46;10.93;;;3.95;;
35644;SDS011;21764;52.042;6.830;2022-09-09T06:41:46;11.80;;;3.33;;
35644;SDS011;21764;52.042;6.830;2022-09-09T06:46:48;14.43;;;4.00;;
35644;SDS011;21764;52.042;6.830;2022-09-09T06:51:49;13.18;;;4.05;;
35644;SDS011;21764;52.042;6.830;2022-09-09T06:56:52;11.52;;;2.85;;
35644;SDS011;21764;52.042;6.830;2022-09-09T07:01:52;10.25;;;2.53;;
35644;SDS011;21764;52.042;6.830;2022-09-09T07:06:54;9.30;;;3.05;;
35644;SDS011;21764;52.042;6.830;2022-09-09T07:11:55;9.55;;;3.10;;
35644;SDS011;21764;52.042;6.830;2022-09-09T07:16:58;9.38;;;2.58;;
35644;SDS011;21764;52.042;6.830;2022-09-09T07:22:00;12.15;;;3.33;;
35644;SDS011;21764;52.042;6.830;2022-09-09T07:27:01;9.63;;;3.00;;
35644;SDS011;21764;52.042;6.830;2022-09-09T07:32:03;9.45;;;2.97;;
35644;SDS011;21764;52.042;6.830;2022-09-09T07:37:04;13.10;;;3.42;;
35644;SDS011;21764;52.042;6.830;2022-09-09T07:42:05;11.25;;;2.25;;
35644;SDS011;21764;52.042;6.830;2022-09-09T07:47:06;9.77;;;2.05;;
35644;SDS011;21764;52.042;6.830;2022-09-09T07:52:07;8.25;;;2.10;;
35644;SDS011;21764;52.042;6.830;2022-09-09T07:57:08;7.82;;;2.10;;
35644;SDS011;21764;52.042;6.830;2022-09-09T08:02:08;9.43;;;2.13;;
35644;SDS011;21764;52.042;6.830;2022-09-09T08:07:09;9.68;;;2.47;;
35644;SDS011;21764;52.042;6.830;2022-09-09T08:12:10;12.07;;;2.42;;
35644;SDS011;21764;52.042;6.830;2022-09-09T08:17:12;11.68;;;2.63;;
35644;SDS011;21764;52.042;6.830;2022-09-09T08:22:13;10.40;;;2.75;;
35644;SDS011;21764;52.042;6.830;2022-09-09T08:27:16;12.95;;;3.00;;
35644;SDS011;21764;52.042;6.830;2022-09-09T08:32:17;12.32;;;3.00;;
35644;SDS011;21764;52.042;6.830;2022-09-09T08:37:19;14.23;;;3.03;;
35644;SDS011;21764;52.042;6.830;2022-09-09T08:42:38;8.02;;;2.83;;
35644;SDS011;21764;52.042;6.830;2022-09-09T08:47:53;9.80;;;2.20;;
35644;SDS011;21764;52.042;6.830;2022-09-09T08:58:11;12.40;;;2.50;;
35644;SDS011;21764;52.042;6.830;2022-09-09T09:13:59;6.30;;;1.92;;
35644;SDS011;21764;52.042;6.830;2022-09-09T09:19:05;9.93;;;2.13;;
35644;SDS011;21764;52.042;6.830;2022-09-09T09:24:35;9.18;;;2.08;;
35644;SDS011;21764;52.042;6.830;2022-09-09T09:29:46;13.10;;;2.50;;
35644;SDS011;21764;52.042;6.830;2022-09-09T09:34:54;7.10;;;1.90;;
35644;SDS011;21764;52.042;6.830;2022-09-09T09:40:12;7.50;;;1.50;;
35644;SDS011;21764;52.042;6.830;2022-09-09T09:45:22;8.13;;;1.98;;
35644;SDS011;21764;52.042;6.830;2022-09-09T09:56:09;6.50;;;2.33;;
35644;SDS011;21764;52.042;6.830;2022-09-09T10:01:23;7.80;;;1.80;;
35644;SDS011;21764;52.042;6.830;2022-09-09T10:06:34;7.68;;;1.40;;
35644;SDS011;21764;52.042;6.830;2022-09-09T10:11:40;9.40;;;1.50;;
35644;SDS011;21764;52.042;6.830;2022-09-09T10:32:53;8.18;;;1.85;;
35644;SDS011;21764;52.042;6.830;2022-09-09T10:54:23;9.77;;;2.17;;
35644;SDS011;21764;52.042;6.830;2022-09-09T11:00:17;9.35;;;1.90;;
35644;SDS011;21764;52.042;6.830;2022-09-09T11:05:21;8.73;;;1.90;;
35644;SDS011;21764;52.042;6.830;2022-09-09T11:10:40;7.38;;;1.70;;
35644;SDS011;21764;52.042;6.830;2022-09-09T11:21:46;8.82;;;1.95;;
35644;SDS011;21764;52.042;6.830;2022-09-09T11:26:52;8.15;;;1.70;;
35644;SDS011;21764;52.042;6.830;2022-09-09T11:43:52;8.70;;;1.80;;
35644;SDS011;21764;52.042;6.830;2022-09-09T11:48:26;7.78;;;2.03;;
35644;SDS011;21764;52.042;6.830;2022-09-09T11:53:32;11.77;;;1.73;;
35644;SDS011;21764;52.042;6.830;2022-09-09T12:04:05;8.02;;;1.70;;
35644;SDS011;21764;52.042;6.830;2022-09-09T12:14:36;8.88;;;2.30;;
35644;SDS011;21764;52.042;6.830;2022-09-09T12:35:55;6.35;;;1.85;;
35644;SDS011;21764;52.042;6.830;2022-09-09T12:40:58;7.38;;;1.65;;
35644;SDS011;21764;52.042;6.830;2022-09-09T12:46:03;8.38;;;1.70;;
35644;SDS011;21764;52.042;6.830;2022-09-09T12:51:28;10.43;;;1.90;;
35644;SDS011;21764;52.042;6.830;2022-09-09T12:56:31;5.57;;;1.17;;
35644;SDS011;21764;52.042;6.830;2022-09-09T13:01:35;4.63;;;1.20;;
35644;SDS011;21764;52.042;6.830;2022-09-09T13:06:36;4.82;;;1.20;;
35644;SDS011;21764;52.042;6.830;2022-09-09T13:11:41;5.50;;;0.95;;
35644;SDS011;21764;52.042;6.830;2022-09-09T13:16:57;2.88;;;1.10;;
35644;SDS011;21764;52.042;6.830;2022-09-09T13:21:59;4.22;;;1.20;;
35644;SDS011;21764;52.042;6.830;2022-09-09T13:27:01;4.05;;;1.42;;
35644;SDS011;21764;52.042;6.830;2022-09-09T13:32:12;6.82;;;1.63;;
35644;SDS011;21764;52.042;6.830;2022-09-09T13:37:22;4.53;;;1.70;;
35644;SDS011;21764;52.042;6.830;2022-09-09T13:42:39;8.10;;;1.27;;
35644;SDS011;21764;52.042;6.830;2022-09-09T13:47:42;10.15;;;2.30;;
35644;SDS011;21764;52.042;6.830;2022-09-09T13:52:43;11.00;;;2.38;;
35644;SDS011;21764;52.042;6.830;2022-09-09T13:57:53;14.35;;;1.70;;
35644;SDS011;21764;52.042;6.830;2022-09-09T14:02:56;7.93;;;1.92;;
35644;SDS011;21764;52.042;6.830;2022-09-09T14:07:57;5.93;;;1.90;;
35644;SDS011;21764;52.042;6.830;2022-09-09T14:12:58;10.55;;;2.08;;
35644;SDS011;21764;52.042;6.830;2022-09-09T14:17:58;6.15;;;1.98;;
35644;SDS011;21764;52.042;6.830;2022-09-09T14:22:59;6.68;;;2.05;;
35644;SDS011;21764;52.042;6.830;2022-09-09T14:28:00;7.18;;;1.60;;
35644;SDS011;21764;52.042;6.830;2022-09-09T14:33:02;12.10;;;2.00;;
35644;SDS011;21764;52.042;6.830;2022-09-09T14:38:11;4.95;;;1.63;;
35644;SDS011;21764;52.042;6.830;2022-09-09T14:43:12;6.63;;;2.20;;
35644;SDS011;21764;52.042;6.830;2022-09-09T14:48:14;3.80;;;1.30;;
35644;SDS011;21764;52.042;6.830;2022-09-09T14:53:16;7.80;;;2.17;;
35644;SDS011;21764;52.042;6.830;2022-09-09T14:58:16;9.60;;;2.65;;
35644;SDS011;21764;52.042;6.830;2022-09-09T15:03:17;6.70;;;1.83;;
35644;SDS011;21764;52.042;6.830;2022-09-09T15:08:18;7.50;;;2.08;;
35644;SDS011;21764;52.042;6.830;2022-09-09T15:13:18;5.43;;;1.90;;
35644;SDS011;21764;52.042;6.830;2022-09-09T15:18:29;5.85;;;2.30;;
35644;SDS011;21764;52.042;6.830;2022-09-09T15:23:31;9.35;;;2.20;;
35644;SDS011;21764;52.042;6.830;2022-09-09T15:28:33;5.97;;;2.30;;
35644;SDS011;21764;52.042;6.830;2022-09-09T15:33:38;13.35;;;2.50;;
35644;SDS011;21764;52.042;6.830;2022-09-09T15:38:38;5.97;;;2.15;;
35644;SDS011;21764;52.042;6.830;2022-09-09T15:43:42;10.13;;;2.42;;
35644;SDS011;21764;52.042;6.830;2022-09-09T15:48:46;5.05;;;1.50;;
35644;SDS011;21764;52.042;6.830;2022-09-09T15:53:52;16.58;;;2.28;;
35644;SDS011;21764;52.042;6.830;2022-09-09T15:58:55;8.20;;;1.90;;
35644;SDS011;21764;52.042;6.830;2022-09-09T16:03:57;5.47;;;2.03;;
35644;SDS011;21764;52.042;6.830;2022-09-09T16:08:59;8.20;;;1.88;;
35644;SDS011;21764;52.042;6.830;2022-09-09T16:14:02;11.30;;;2.20;;
35644;SDS011;21764;52.042;6.830;2022-09-09T16:19:05;5.07;;;1.30;;
35644;SDS011;21764;52.042;6.830;2022-09-09T16:24:08;4.88;;;1.33;;
35644;SDS011;21764;52.042;6.830;2022-09-09T16:29:10;4.32;;;1.55;;
35644;SDS011;21764;52.042;6.830;2022-09-09T16:34:12;7.57;;;1.70;;
35644;SDS011;21764;52.042;6.830;2022-09-09T16:39:14;6.32;;;1.50;;
35644;SDS011;21764;52.042;6.830;2022-09-09T16:44:17;7.85;;;1.92;;
35644;SDS011;21764;52.042;6.830;2022-09-09T16:49:19;9.70;;;3.10;;
35644;SDS011;21764;52.042;6.830;2022-09-09T16:54:20;4.18;;;1.55;;
35644;SDS011;21764;52.042;6.830;2022-09-09T16:59:39;4.43;;;1.80;;
35644;SDS011;21764;52.042;6.830;2022-09-09T17:04:42;7.93;;;1.65;;
35644;SDS011;21764;52.042;6.830;2022-09-09T17:09:57;8.50;;;1.90;;
35644;SDS011;21764;52.042;6.830;2022-09-09T17:15:11;10.38;;;2.45;;
35644;SDS011;21764;52.042;6.830;2022-09-09T17:20:27;6.45;;;2.65;;
35644;SDS011;21764;52.042;6.830;2022-09-09T17:25:31;6.55;;;2.10;;
35644;SDS011;21764;52.042;6.830;2022-09-09T17:30:44;7.38;;;2.63;;
35644;SDS011;21764;52.042;6.830;2022-09-09T17:35:44;9.25;;;2.80;;
35644;SDS011;21764;52.042;6.830;2022-09-09T17:40:45;12.57;;;3.72;;
35644;SDS011;21764;52.042;6.830;2022-09-09T17:45:46;10.27;;;5.07;;
35644;SDS011;21764;52.042;6.830;2022-09-09T17:50:46;10.10;;;4.35;;
35644;SDS011;21764;52.042;6.830;2022-09-09T17:55:47;10.82;;;3.30;;
35644;SDS011;21764;52.042;6.830;2022-09-09T18:00:49;11.23;;;3.50;;
35644;SDS011;21764;52.042;6.830;2022-09-09T18:05:50;8.18;;;3.38;;
35644;SDS011;21764;52.042;6.830;2022-09-09T18:10:51;6.82;;;1.80;;
35644;SDS011;21764;52.042;6.830;2022-09-09T18:15:54;3.92;;;1.10;;
35644;SDS011;21764;52.042;6.830;2022-09-09T18:20:59;3.90;;;1.35;;
35644;SDS011;21764;52.042;6.830;2022-09-09T18:26:12;3.10;;;1.27;;
35644;SDS011;21764;52.042;6.830;2022-09-09T18:31:15;9.80;;;2.10;;
35644;SDS011;21764;52.042;6.830;2022-09-09T18:36:18;2.65;;;1.67;;
35644;SDS011;21764;52.042;6.830;2022-09-09T18:41:22;4.38;;;1.80;;
35644;SDS011;21764;52.042;6.830;2022-09-09T18:46:25;3.67;;;2.10;;
35644;SDS011;21764;52.042;6.830;2022-09-09T18:51:28;3.83;;;1.95;;
35644;SDS011;21764;52.042;6.830;2022-09-09T18:56:29;2.80;;;1.90;;
35644;SDS011;21764;52.042;6.830;2022-09-09T19:01:30;4.60;;;1.60;;
35644;SDS011;21764;52.042;6.830;2022-09-09T19:06:32;7.28;;;1.92;;
35644;SDS011;21764;52.042;6.830;2022-09-09T19:11:36;5.20;;;2.00;;
35644;SDS011;21764;52.042;6.830;2022-09-09T19:16:39;3.67;;;2.03;;
35644;SDS011;21764;52.042;6.830;2022-09-09T19:21:41;3.58;;;1.92;;
35644;SDS011;21764;52.042;6.830;2022-09-09T19:26:45;5.95;;;2.80;;
35644;SDS011;21764;52.042;6.830;2022-09-09T19:31:48;6.55;;;3.42;;
35644;SDS011;21764;52.042;6.830;2022-09-09T19:36:50;3.88;;;3.45;;
35644;SDS011;21764;52.042;6.830;2022-09-09T19:41:51;5.97;;;3.95;;
35644;SDS011;21764;52.042;6.830;2022-09-09T19:46:51;8.77;;;4.53;;
35644;SDS011;21764;52.042;6.830;2022-09-09T19:51:53;4.80;;;4.30;;
35644;SDS011;21764;52.042;6.830;2022-09-09T19:56:54;6.05;;;5.13;;
35644;SDS011;21764;52.042;6.830;2022-09-09T20:01:57;9.73;;;7.43;;
35644;SDS011;21764;52.042;6.830;2022-09-09T20:06:59;11.23;;;9.73;;
35644;SDS011;21764;52.042;6.830;2022-09-09T20:12:02;14.82;;;10.63;;
35644;SDS011;21764;52.042;6.830;2022-09-09T20:17:03;12.00;;;10.57;;
35644;SDS011;21764;52.042;6.830;2022-09-09T20:22:04;12.32;;;11.18;;
35644;SDS011;21764;52.042;6.830;2022-09-09T20:27:07;10.80;;;9.68;;
35644;SDS011;21764;52.042;6.830;2022-09-09T20:32:08;13.63;;;9.20;;
35644;SDS011;21764;52.042;6.830;2022-09-09T20:37:09;9.57;;;6.93;;
35644;SDS011;21764;52.042;6.830;2022-09-09T20:42:10;9.70;;;6.75;;
35644;SDS011;21764;52.042;6.830;2022-09-09T20:47:11;7.40;;;6.60;;
35644;SDS011;21764;52.042;6.830;2022-09-09T20:52:13;7.00;;;5.85;;
35644;SDS011;21764;52.042;6.830;2022-09-09T20:57:14;8.98;;;6.30;;
35644;SDS011;21764;52.042;6.830;2022-09-09T21:02:20;8.43;;;6.13;;
35644;SDS011;21764;52.042;6.830;2022-09-09T21:07:20;8.57;;;5.82;;
35644;SDS011;21764;52.042;6.830;2022-09-09T21:12:22;9.07;;;6.63;;
35644;SDS011;21764;52.042;6.830;2022-09-09T21:17:23;11.23;;;7.03;;
35644;SDS011;21764;52.042;6.830;2022-09-09T21:22:24;8.73;;;6.95;;
35644;SDS011;21764;52.042;6.830;2022-09-09T21:27:25;11.00;;;7.55;;
35644;SDS011;21764;52.042;6.830;2022-09-09T21:32:25;13.10;;;7.85;;
35644;SDS011;21764;52.042;6.830;2022-09-09T21:37:26;15.38;;;7.85;;
35644;SDS011;21764;52.042;6.830;2022-09-09T21:42:27;13.48;;;7.80;;
35644;SDS011;21764;52.042;6.830;2022-09-09T21:47:28;12.50;;;6.57;;
35644;SDS011;21764;52.042;6.830;2022-09-09T21:52:28;10.77;;;6.90;;
35644;SDS011;21764;52.042;6.830;2022-09-09T21:57:29;11.30;;;6.70;;
35644;SDS011;21764;52.042;6.830;2022-09-09T22:02:30;10.88;;;6.07;;
35644;SDS011;21764;52.042;6.830;2022-09-09T22:07:33;9.90;;;5.68;;
35644;SDS011;21764;52.042;6.830;2022-09-09T22:12:34;10.85;;;7.07;;
35644;SDS011;21764;52.042;6.830;2022-09-09T22:17:35;11.10;;;6.90;;
35644;SDS011;21764;52.042;6.830;2022-09-09T22:22:36;10.50;;;7.07;;
35644;SDS011;21764;52.042;6.830;2022-09-09T22:27:38;8.32;;;5.93;;
35644;SDS011;21764;52.042;6.830;2022-09-09T22:32:39;11.27;;;7.00;;
35644;SDS011;21764;52.042;6.830;2022-09-09T22:37:39;10.52;;;6.25;;
35644;SDS011;21764;52.042;6.830;2022-09-09T22:42:40;9.73;;;6.05;;
35644;SDS011;21764;52.042;6.830;2022-09-09T22:47:42;12.02;;;6.47;;
35644;SDS011;21764;52.042;6.830;2022-09-09T22:52:43;8.50;;;6.28;;
35644;SDS011;21764;52.042;6.830;2022-09-09T22:57:43;9.88;;;5.20;;
35644;SDS011;21764;52.042;6.830;2022-09-09T23:02:45;9.90;;;5.47;;
35644;SDS011;21764;52.042;6.830;2022-09-09T23:07:49;10.00;;;5.57;;
35644;SDS011;21764;52.042;6.830;2022-09-09T23:12:51;8.70;;;6.07;;
35644;SDS011;21764;52.042;6.830;2022-09-09T23:17:53;7.65;;;5.75;;
35644;SDS011;21764;52.042;6.830;2022-09-09T23:22:54;16.08;;;7.47;;
35644;SDS011;21764;52.042;6.830;2022-09-09T23:27:54;12.82;;;7.78;;
35644;SDS011;21764;52.042;6.830;2022-09-09T23:32:55;15.07;;;8.77;;
35644;SDS011;21764;52.042;6.830;2022-09-09T23:37:56;16.55;;;8.68;;
35644;SDS011;21764;52.042;6.830;2022-09-09T23:42:57;15.38;;;8.60;;
35644;SDS011;21764;52.042;6.830;2022-09-09T23:47:59;19.52;;;9.32;;
35644;SDS011;21764;52.042;6.830;2022-09-09T23:53:00;22.52;;;10.15;;
35644;SDS011;21764;52.042;6.830;2022-09-09T23:58:02;16.83;;;10.05;;
